sensor_id;sensor_type;location;lat;lon;timestamp;temperature;humidity
54168;DHT22;40072;50.958;3.592;2022-12-29T00:02:01;11.40;99.90
54168;DHT22;40072;50.958;3.592;2022-12-29T00:04:26;11.40;99.90
54168;DHT22;40072;50.958;3.592;2022-12-29T00:06:52;11.50;99.90
54168;DHT22;40072;50.958;3.592;2022-12-29T00:09:18;11.40;99.90
54168;DHT22;40072;50.958;3.592;2022-12-29T00:11:44;11.50;99.90
54168;DHT22;40072;50.958;3.592;2022-12-29T00:14:11;11.50;99.90
54168;DHT22;40072;50.958;3.592;2022-12-29T00:16:56;11.50;99.90
54168;DHT22;40072;50.958;3.592;2022-12-29T00:19:22;11.60;99.90
54168;DHT22;40072;50.958;3.592;2022-12-29T00:22:08;11.70;99.90
54168;DHT22;40072;50.958;3.592;2022-12-29T00:24:52;11.60;99.90
54168;DHT22;40072;50.958;3.592;2022-12-29T00:27:28;11.50;99.90
54168;DHT22;40072;50.958;3.592;2022-12-29T00:30:16;11.60;99.90
54168;DHT22;40072;50.958;3.592;2022-12-29T00:33:07;11.60;99.90
54168;DHT22;40072;50.958;3.592;2022-12-29T00:35:54;11.60;99.90
54168;DHT22;40072;50.958;3.592;2022-12-29T00:38:21;11.70;99.90
54168;DHT22;40072;50.958;3.592;2022-12-29T00:41:05;11.60;99.90
54168;DHT22;40072;50.958;3.592;2022-12-29T00:43:49;11.70;99.90
54168;DHT22;40072;50.958;3.592;2022-12-29T00:46:30;11.70;99.90
54168;DHT22;40072;50.958;3.592;2022-12-29T00:48:57;11.80;99.90
54168;DHT22;40072;50.958;3.592;2022-12-29T00:51:41;11.70;99.90
54168;DHT22;40072;50.958;3.592;2022-12-29T00:54:07;11.70;99.90
54168;DHT22;40072;50.958;3.592;2022-12-29T00:56:33;11.70;99.90
54168;DHT22;40072;50.958;3.592;2022-12-29T00:59:03;11.70;99.90
54168;DHT22;40072;50.958;3.592;2022-12-29T01:01:29;11.70;99.90
54168;DHT22;40072;50.958;3.592;2022-12-29T01:03:54;11.70;99.90
54168;DHT22;40072;50.958;3.592;2022-12-29T01:06:20;11.70;99.90
54168;DHT22;40072;50.958;3.592;2022-12-29T01:08:46;11.70;99.90
54168;DHT22;40072;50.958;3.592;2022-12-29T01:11:12;11.70;99.90
54168;DHT22;40072;50.958;3.592;2022-12-29T01:13:39;11.70;99.90
54168;DHT22;40072;50.958;3.592;2022-12-29T01:16:06;11.70;99.90
54168;DHT22;40072;50.958;3.592;2022-12-29T01:18:32;11.70;99.90
54168;DHT22;40072;50.958;3.592;2022-12-29T01:21:04;11.70;99.90
54168;DHT22;40072;50.958;3.592;2022-12-29T01:23:31;11.70;99.90
54168;DHT22;40072;50.958;3.592;2022-12-29T01:25:57;11.60;99.90
54168;DHT22;40072;50.958;3.592;2022-12-29T01:28:23;11.60;99.90
54168;DHT22;40072;50.958;3.592;2022-12-29T01:30:49;11.50;99.90
54168;DHT22;40072;50.958;3.592;2022-12-29T01:33:15;11.50;99.90
54168;DHT22;40072;50.958;3.592;2022-12-29T01:35:40;11.50;99.90
54168;DHT22;40072;50.958;3.592;2022-12-29T01:38:06;11.50;99.90
54168;DHT22;40072;50.958;3.592;2022-12-29T01:40:33;11.50;99.90
54168;DHT22;40072;50.958;3.592;2022-12-29T01:42:58;11.40;99.90
54168;DHT22;40072;50.958;3.592;2022-12-29T01:45:24;11.40;99.90
54168;DHT22;40072;50.958;3.592;2022-12-29T01:48:02;11.30;99.90
54168;DHT22;40072;50.958;3.592;2022-12-29T01:50:32;11.30;99.90
54168;DHT22;40072;50.958;3.592;2022-12-29T01:53:02;11.20;99.90
54168;DHT22;40072;50.958;3.592;2022-12-29T01:55:31;11.20;99.90
54168;DHT22;40072;50.958;3.592;2022-12-29T01:58:01;11.20;99.90
54168;DHT22;40072;50.958;3.592;2022-12-29T02:00:28;11.30;99.90
54168;DHT22;40072;50.958;3.592;2022-12-29T02:02:54;11.20;99.90
54168;DHT22;40072;50.958;3.592;2022-12-29T02:08:04;11.30;99.90
54168;DHT22;40072;50.958;3.592;2022-12-29T02:10:32;11.30;99.90
54168;DHT22;40072;50.958;3.592;2022-12-29T02:12:58;11.30;99.90
54168;DHT22;40072;50.958;3.592;2022-12-29T02:18:30;11.30;99.90
54168;DHT22;40072;50.958;3.592;2022-12-29T02:26:49;11.20;99.90
54168;DHT22;40072;50.958;3.592;2022-12-29T02:32:30;11.20;99.90
54168;DHT22;40072;50.958;3.592;2022-12-29T02:38:20;11.10;99.90
54168;DHT22;40072;50.958;3.592;2022-12-29T02:40:47;11.00;99.90
54168;DHT22;40072;50.958;3.592;2022-12-29T02:43:24;10.90;99.90
54168;DHT22;40072;50.958;3.592;2022-12-29T02:45:56;10.90;99.90
54168;DHT22;40072;50.958;3.592;2022-12-29T02:48:31;10.90;99.90
54168;DHT22;40072;50.958;3.592;2022-12-29T02:51:06;10.90;99.90
54168;DHT22;40072;50.958;3.592;2022-12-29T02:53:34;10.90;99.90
54168;DHT22;40072;50.958;3.592;2022-12-29T02:56:20;10.90;99.90
54168;DHT22;40072;50.958;3.592;2022-12-29T02:58:45;11.00;99.90
54168;DHT22;40072;50.958;3.592;2022-12-29T03:15:50;10.90;99.90
54168;DHT22;40072;50.958;3.592;2022-12-29T03:21:08;10.90;99.90
54168;DHT22;40072;50.958;3.592;2022-12-29T03:23:35;10.90;99.90
54168;DHT22;40072;50.958;3.592;2022-12-29T03:26:06;10.80;99.90
54168;DHT22;40072;50.958;3.592;2022-12-29T03:28:39;10.80;99.90
54168;DHT22;40072;50.958;3.592;2022-12-29T03:31:07;10.80;99.90
54168;DHT22;40072;50.958;3.592;2022-12-29T03:33:34;10.70;99.90
54168;DHT22;40072;50.958;3.592;2022-12-29T03:36:08;10.70;99.90
54168;DHT22;40072;50.958;3.592;2022-12-29T03:38:40;10.70;99.90
54168;DHT22;40072;50.958;3.592;2022-12-29T03:41:10;10.70;99.90
54168;DHT22;40072;50.958;3.592;2022-12-29T03:43:37;10.70;99.90
54168;DHT22;40072;50.958;3.592;2022-12-29T03:46:03;10.60;99.90
54168;DHT22;40072;50.958;3.592;2022-12-29T03:48:28;10.50;99.90
54168;DHT22;40072;50.958;3.592;2022-12-29T03:50:54;10.50;99.90
54168;DHT22;40072;50.958;3.592;2022-12-29T03:53:20;10.50;99.90
54168;DHT22;40072;50.958;3.592;2022-12-29T03:55:46;10.50;99.90
54168;DHT22;40072;50.958;3.592;2022-12-29T03:58:12;10.60;99.90
54168;DHT22;40072;50.958;3.592;2022-12-29T04:00:37;10.60;99.90
54168;DHT22;40072;50.958;3.592;2022-12-29T04:03:03;10.60;99.90
54168;DHT22;40072;50.958;3.592;2022-12-29T04:05:29;10.60;99.90
54168;DHT22;40072;50.958;3.592;2022-12-29T04:07:54;10.60;99.90
54168;DHT22;40072;50.958;3.592;2022-12-29T04:10:20;10.60;99.90
54168;DHT22;40072;50.958;3.592;2022-12-29T04:12:46;10.70;99.90
54168;DHT22;40072;50.958;3.592;2022-12-29T04:15:12;10.70;99.90
54168;DHT22;40072;50.958;3.592;2022-12-29T04:17:38;10.70;99.90
54168;DHT22;40072;50.958;3.592;2022-12-29T04:20:04;10.70;99.90
54168;DHT22;40072;50.958;3.592;2022-12-29T04:22:48;10.70;99.90
54168;DHT22;40072;50.958;3.592;2022-12-29T04:25:14;10.70;99.90
54168;DHT22;40072;50.958;3.592;2022-12-29T04:27:40;10.70;99.90
54168;DHT22;40072;50.958;3.592;2022-12-29T04:30:06;10.60;99.90
54168;DHT22;40072;50.958;3.592;2022-12-29T04:32:32;10.70;99.90
54168;DHT22;40072;50.958;3.592;2022-12-29T04:34:57;10.60;99.90
54168;DHT22;40072;50.958;3.592;2022-12-29T04:37:23;10.60;99.90
54168;DHT22;40072;50.958;3.592;2022-12-29T04:39:49;10.60;99.90
54168;DHT22;40072;50.958;3.592;2022-12-29T04:42:14;10.60;99.90
54168;DHT22;40072;50.958;3.592;2022-12-29T04:44:40;10.50;99.90
54168;DHT22;40072;50.958;3.592;2022-12-29T04:47:05;10.40;99.90
54168;DHT22;40072;50.958;3.592;2022-12-29T04:49:31;10.30;99.90
54168;DHT22;40072;50.958;3.592;2022-12-29T04:51:57;10.30;99.90
54168;DHT22;40072;50.958;3.592;2022-12-29T04:54:22;10.30;99.90
54168;DHT22;40072;50.958;3.592;2022-12-29T04:56:48;10.30;99.90
54168;DHT22;40072;50.958;3.592;2022-12-29T04:59:14;10.30;99.90
54168;DHT22;40072;50.958;3.592;2022-12-29T05:01:39;10.30;99.90
54168;DHT22;40072;50.958;3.592;2022-12-29T05:04:05;10.30;99.90
54168;DHT22;40072;50.958;3.592;2022-12-29T05:06:31;10.30;99.90
54168;DHT22;40072;50.958;3.592;2022-12-29T05:08:57;10.40;99.90
54168;DHT22;40072;50.958;3.592;2022-12-29T05:11:22;10.40;99.90
54168;DHT22;40072;50.958;3.592;2022-12-29T05:13:48;10.40;99.90
54168;DHT22;40072;50.958;3.592;2022-12-29T05:16:13;10.50;99.90
54168;DHT22;40072;50.958;3.592;2022-12-29T05:18:39;10.50;99.90
54168;DHT22;40072;50.958;3.592;2022-12-29T05:21:05;10.50;99.90
54168;DHT22;40072;50.958;3.592;2022-12-29T05:23:30;10.40;99.90
54168;DHT22;40072;50.958;3.592;2022-12-29T05:25:56;10.40;99.90
54168;DHT22;40072;50.958;3.592;2022-12-29T05:28:22;10.40;99.90
54168;DHT22;40072;50.958;3.592;2022-12-29T05:30:51;10.30;99.90
54168;DHT22;40072;50.958;3.592;2022-12-29T05:33:17;10.30;99.90
54168;DHT22;40072;50.958;3.592;2022-12-29T05:35:44;10.40;99.90
54168;DHT22;40072;50.958;3.592;2022-12-29T05:38:10;10.40;99.90
54168;DHT22;40072;50.958;3.592;2022-12-29T05:40:35;10.30;99.90
54168;DHT22;40072;50.958;3.592;2022-12-29T05:43:01;10.30;99.90
54168;DHT22;40072;50.958;3.592;2022-12-29T05:45:27;10.30;99.90
54168;DHT22;40072;50.958;3.592;2022-12-29T05:47:52;10.40;99.90
54168;DHT22;40072;50.958;3.592;2022-12-29T05:50:18;10.40;99.90
54168;DHT22;40072;50.958;3.592;2022-12-29T05:52:44;10.50;99.90
54168;DHT22;40072;50.958;3.592;2022-12-29T05:55:11;10.50;99.90
54168;DHT22;40072;50.958;3.592;2022-12-29T05:57:37;10.60;99.90
54168;DHT22;40072;50.958;3.592;2022-12-29T06:00:04;10.50;99.90
54168;DHT22;40072;50.958;3.592;2022-12-29T06:02:30;10.50;99.90
54168;DHT22;40072;50.958;3.592;2022-12-29T06:04:56;10.50;99.90
54168;DHT22;40072;50.958;3.592;2022-12-29T06:07:21;10.40;99.90
54168;DHT22;40072;50.958;3.592;2022-12-29T06:09:47;10.50;99.90
54168;DHT22;40072;50.958;3.592;2022-12-29T06:12:13;10.60;99.90
54168;DHT22;40072;50.958;3.592;2022-12-29T06:14:38;10.60;99.90
54168;DHT22;40072;50.958;3.592;2022-12-29T06:17:04;10.60;99.90
54168;DHT22;40072;50.958;3.592;2022-12-29T06:19:30;10.60;99.90
54168;DHT22;40072;50.958;3.592;2022-12-29T06:21:55;10.50;99.90
54168;DHT22;40072;50.958;3.592;2022-12-29T06:24:21;10.50;99.90
54168;DHT22;40072;50.958;3.592;2022-12-29T06:26:47;10.50;99.90
54168;DHT22;40072;50.958;3.592;2022-12-29T06:29:13;10.30;99.90
54168;DHT22;40072;50.958;3.592;2022-12-29T06:31:42;10.20;99.90
54168;DHT22;40072;50.958;3.592;2022-12-29T06:34:09;10.20;99.90
54168;DHT22;40072;50.958;3.592;2022-12-29T06:36:34;10.20;99.90
54168;DHT22;40072;50.958;3.592;2022-12-29T06:39:00;10.30;99.90
54168;DHT22;40072;50.958;3.592;2022-12-29T06:41:26;10.30;99.90
54168;DHT22;40072;50.958;3.592;2022-12-29T06:43:51;10.40;99.90
54168;DHT22;40072;50.958;3.592;2022-12-29T06:46:17;10.40;99.90
54168;DHT22;40072;50.958;3.592;2022-12-29T06:48:43;10.40;99.90
54168;DHT22;40072;50.958;3.592;2022-12-29T06:51:08;10.50;99.90
54168;DHT22;40072;50.958;3.592;2022-12-29T06:53:34;10.50;99.90
54168;DHT22;40072;50.958;3.592;2022-12-29T06:56:00;10.50;99.90
54168;DHT22;40072;50.958;3.592;2022-12-29T06:58:25;10.50;99.90
54168;DHT22;40072;50.958;3.592;2022-12-29T07:00:51;10.50;99.90
54168;DHT22;40072;50.958;3.592;2022-12-29T07:03:17;10.50;99.90
54168;DHT22;40072;50.958;3.592;2022-12-29T07:05:42;10.50;99.90
54168;DHT22;40072;50.958;3.592;2022-12-29T07:08:08;10.50;99.90
54168;DHT22;40072;50.958;3.592;2022-12-29T07:10:34;10.50;99.90
54168;DHT22;40072;50.958;3.592;2022-12-29T07:12:59;10.50;99.90
54168;DHT22;40072;50.958;3.592;2022-12-29T07:15:25;10.50;99.90
54168;DHT22;40072;50.958;3.592;2022-12-29T07:17:51;10.50;99.90
54168;DHT22;40072;50.958;3.592;2022-12-29T07:20:17;10.50;99.90
54168;DHT22;40072;50.958;3.592;2022-12-29T07:22:42;10.50;99.90
54168;DHT22;40072;50.958;3.592;2022-12-29T07:25:08;10.50;99.90
54168;DHT22;40072;50.958;3.592;2022-12-29T07:27:34;10.50;99.90
54168;DHT22;40072;50.958;3.592;2022-12-29T07:30:00;10.50;99.90
54168;DHT22;40072;50.958;3.592;2022-12-29T07:32:25;10.50;99.90
54168;DHT22;40072;50.958;3.592;2022-12-29T07:34:51;10.50;99.90
54168;DHT22;40072;50.958;3.592;2022-12-29T07:37:17;10.50;99.90
54168;DHT22;40072;50.958;3.592;2022-12-29T07:39:43;10.50;99.90
54168;DHT22;40072;50.958;3.592;2022-12-29T07:42:08;10.50;99.90
54168;DHT22;40072;50.958;3.592;2022-12-29T07:44:34;10.50;99.90
54168;DHT22;40072;50.958;3.592;2022-12-29T07:47:00;10.50;99.90
54168;DHT22;40072;50.958;3.592;2022-12-29T07:49:25;10.40;99.90
54168;DHT22;40072;50.958;3.592;2022-12-29T07:51:51;10.40;99.90
54168;DHT22;40072;50.958;3.592;2022-12-29T07:54:17;10.40;99.90
54168;DHT22;40072;50.958;3.592;2022-12-29T07:56:44;10.30;99.90
54168;DHT22;40072;50.958;3.592;2022-12-29T07:59:10;10.30;99.90
54168;DHT22;40072;50.958;3.592;2022-12-29T08:01:37;10.30;99.90
54168;DHT22;40072;50.958;3.592;2022-12-29T08:04:03;10.40;99.90
54168;DHT22;40072;50.958;3.592;2022-12-29T08:06:29;10.40;99.90
54168;DHT22;40072;50.958;3.592;2022-12-29T08:08:56;10.40;99.90
54168;DHT22;40072;50.958;3.592;2022-12-29T08:11:22;10.40;99.90
54168;DHT22;40072;50.958;3.592;2022-12-29T08:13:48;10.50;99.90
54168;DHT22;40072;50.958;3.592;2022-12-29T08:16:14;10.60;99.90
54168;DHT22;40072;50.958;3.592;2022-12-29T08:18:40;10.60;99.90
54168;DHT22;40072;50.958;3.592;2022-12-29T08:21:05;10.50;99.90
54168;DHT22;40072;50.958;3.592;2022-12-29T08:23:31;10.40;99.90
54168;DHT22;40072;50.958;3.592;2022-12-29T08:25:59;10.30;99.90
54168;DHT22;40072;50.958;3.592;2022-12-29T08:28:25;10.20;99.90
54168;DHT22;40072;50.958;3.592;2022-12-29T08:30:51;10.10;99.90
54168;DHT22;40072;50.958;3.592;2022-12-29T08:33:17;10.10;99.90
54168;DHT22;40072;50.958;3.592;2022-12-29T08:35:42;10.10;99.90
54168;DHT22;40072;50.958;3.592;2022-12-29T08:38:08;10.00;99.90
54168;DHT22;40072;50.958;3.592;2022-12-29T08:40:36;9.90;99.90
54168;DHT22;40072;50.958;3.592;2022-12-29T08:43:02;9.90;99.90
54168;DHT22;40072;50.958;3.592;2022-12-29T08:45:28;9.90;99.90
54168;DHT22;40072;50.958;3.592;2022-12-29T08:47:54;9.90;99.90
54168;DHT22;40072;50.958;3.592;2022-12-29T08:50:19;9.90;99.90
54168;DHT22;40072;50.958;3.592;2022-12-29T08:52:45;9.90;99.90
54168;DHT22;40072;50.958;3.592;2022-12-29T08:55:11;9.80;99.90
54168;DHT22;40072;50.958;3.592;2022-12-29T08:57:37;9.70;99.90
54168;DHT22;40072;50.958;3.592;2022-12-29T09:00:04;9.70;99.90
54168;DHT22;40072;50.958;3.592;2022-12-29T09:02:29;9.70;99.90
54168;DHT22;40072;50.958;3.592;2022-12-29T09:04:55;9.70;99.90
54168;DHT22;40072;50.958;3.592;2022-12-29T09:07:23;9.70;99.90
54168;DHT22;40072;50.958;3.592;2022-12-29T09:09:49;9.80;99.90
54168;DHT22;40072;50.958;3.592;2022-12-29T09:12:16;9.70;99.90
54168;DHT22;40072;50.958;3.592;2022-12-29T09:14:42;9.70;99.90
54168;DHT22;40072;50.958;3.592;2022-12-29T09:17:10;9.60;99.90
54168;DHT22;40072;50.958;3.592;2022-12-29T09:19:54;9.50;99.90
54168;DHT22;40072;50.958;3.592;2022-12-29T09:22:20;9.40;99.90
54168;DHT22;40072;50.958;3.592;2022-12-29T09:24:46;9.40;99.90
54168;DHT22;40072;50.958;3.592;2022-12-29T09:27:12;9.40;99.90
54168;DHT22;40072;50.958;3.592;2022-12-29T09:29:38;9.50;99.90
54168;DHT22;40072;50.958;3.592;2022-12-29T09:32:04;9.60;99.90
54168;DHT22;40072;50.958;3.592;2022-12-29T09:34:30;9.60;99.90
54168;DHT22;40072;50.958;3.592;2022-12-29T09:36:55;9.60;99.90
54168;DHT22;40072;50.958;3.592;2022-12-29T09:39:22;9.70;99.90
54168;DHT22;40072;50.958;3.592;2022-12-29T09:41:50;9.70;99.90
54168;DHT22;40072;50.958;3.592;2022-12-29T09:44:25;9.70;99.90
54168;DHT22;40072;50.958;3.592;2022-12-29T09:46:56;9.70;99.90
54168;DHT22;40072;50.958;3.592;2022-12-29T09:51:57;9.60;99.90
54168;DHT22;40072;50.958;3.592;2022-12-29T09:57:15;9.50;99.90
54168;DHT22;40072;50.958;3.592;2022-12-29T09:59:44;9.50;99.90
54168;DHT22;40072;50.958;3.592;2022-12-29T10:02:21;9.50;99.90
54168;DHT22;40072;50.958;3.592;2022-12-29T10:04:49;9.50;99.90
54168;DHT22;40072;50.958;3.592;2022-12-29T10:07:36;9.50;99.90
54168;DHT22;40072;50.958;3.592;2022-12-29T10:16:14;9.90;99.90
54168;DHT22;40072;50.958;3.592;2022-12-29T10:19:05;9.90;99.90
54168;DHT22;40072;50.958;3.592;2022-12-29T10:24:19;9.80;99.90
54168;DHT22;40072;50.958;3.592;2022-12-29T10:26:48;9.90;99.90
54168;DHT22;40072;50.958;3.592;2022-12-29T10:29:22;10.10;99.90
54168;DHT22;40072;50.958;3.592;2022-12-29T10:32:03;10.20;99.90
54168;DHT22;40072;50.958;3.592;2022-12-29T10:34:45;10.30;99.90
54168;DHT22;40072;50.958;3.592;2022-12-29T10:39:57;10.30;99.90
54168;DHT22;40072;50.958;3.592;2022-12-29T10:42:31;10.40;99.90
54168;DHT22;40072;50.958;3.592;2022-12-29T10:44:59;10.40;99.90
54168;DHT22;40072;50.958;3.592;2022-12-29T10:47:33;10.50;99.90
54168;DHT22;40072;50.958;3.592;2022-12-29T10:50:00;10.60;99.90
54168;DHT22;40072;50.958;3.592;2022-12-29T10:52:28;10.60;99.90
54168;DHT22;40072;50.958;3.592;2022-12-29T10:55:27;10.60;99.90
54168;DHT22;40072;50.958;3.592;2022-12-29T10:57:56;10.50;99.90
54168;DHT22;40072;50.958;3.592;2022-12-29T11:00:25;10.40;99.90
54168;DHT22;40072;50.958;3.592;2022-12-29T11:03:12;10.50;99.90
54168;DHT22;40072;50.958;3.592;2022-12-29T11:08:41;10.60;99.90
54168;DHT22;40072;50.958;3.592;2022-12-29T11:11:10;10.70;99.90
54168;DHT22;40072;50.958;3.592;2022-12-29T11:13:51;10.60;99.90
54168;DHT22;40072;50.958;3.592;2022-12-29T11:16:29;10.50;99.90
54168;DHT22;40072;50.958;3.592;2022-12-29T11:18:56;10.50;99.90
54168;DHT22;40072;50.958;3.592;2022-12-29T11:21:32;10.40;99.90
54168;DHT22;40072;50.958;3.592;2022-12-29T11:24:01;10.40;99.90
54168;DHT22;40072;50.958;3.592;2022-12-29T11:26:29;10.30;99.90
54168;DHT22;40072;50.958;3.592;2022-12-29T11:31:44;10.30;99.90
54168;DHT22;40072;50.958;3.592;2022-12-29T11:34:33;10.30;99.90
54168;DHT22;40072;50.958;3.592;2022-12-29T11:37:19;10.40;99.90
54168;DHT22;40072;50.958;3.592;2022-12-29T11:39:59;10.30;99.90
54168;DHT22;40072;50.958;3.592;2022-12-29T11:42:41;10.20;99.90
54168;DHT22;40072;50.958;3.592;2022-12-29T11:45:19;10.00;99.90
54168;DHT22;40072;50.958;3.592;2022-12-29T11:47:48;9.80;99.90
54168;DHT22;40072;50.958;3.592;2022-12-29T11:50:41;9.80;99.90
54168;DHT22;40072;50.958;3.592;2022-12-29T11:55:59;9.80;99.90
54168;DHT22;40072;50.958;3.592;2022-12-29T11:58:31;9.90;99.90
54168;DHT22;40072;50.958;3.592;2022-12-29T12:01:02;10.00;99.90
54168;DHT22;40072;50.958;3.592;2022-12-29T12:03:30;10.00;99.90
54168;DHT22;40072;50.958;3.592;2022-12-29T12:06:00;10.00;99.90
54168;DHT22;40072;50.958;3.592;2022-12-29T12:08:47;9.90;99.90
54168;DHT22;40072;50.958;3.592;2022-12-29T12:14:15;9.90;99.90
54168;DHT22;40072;50.958;3.592;2022-12-29T12:16:50;9.90;99.90
54168;DHT22;40072;50.958;3.592;2022-12-29T12:25:18;9.90;99.90
54168;DHT22;40072;50.958;3.592;2022-12-29T12:30:36;10.30;99.90
54168;DHT22;40072;50.958;3.592;2022-12-29T12:33:29;10.40;99.90
54168;DHT22;40072;50.958;3.592;2022-12-29T12:39:25;10.30;99.90
54168;DHT22;40072;50.958;3.592;2022-12-29T12:50:35;10.10;99.90
54168;DHT22;40072;50.958;3.592;2022-12-29T13:01:51;10.00;99.90
54168;DHT22;40072;50.958;3.592;2022-12-29T13:16:33;9.40;99.90
54168;DHT22;40072;50.958;3.592;2022-12-29T13:19:08;9.10;99.90
54168;DHT22;40072;50.958;3.592;2022-12-29T13:26:50;9.00;99.90
54168;DHT22;40072;50.958;3.592;2022-12-29T13:29:47;9.00;99.90
54168;DHT22;40072;50.958;3.592;2022-12-29T13:37:36;9.10;99.90
54168;DHT22;40072;50.958;3.592;2022-12-29T13:40:16;9.10;99.90
54168;DHT22;40072;50.958;3.592;2022-12-29T13:42:43;9.10;99.90
54168;DHT22;40072;50.958;3.592;2022-12-29T13:45:30;9.10;99.90
54168;DHT22;40072;50.958;3.592;2022-12-29T13:50:45;9.10;99.90
54168;DHT22;40072;50.958;3.592;2022-12-29T13:55:58;9.00;99.90
54168;DHT22;40072;50.958;3.592;2022-12-29T14:01:33;9.00;99.90
54168;DHT22;40072;50.958;3.592;2022-12-29T14:04:00;9.00;99.90
54168;DHT22;40072;50.958;3.592;2022-12-29T14:06:30;8.90;99.90
54168;DHT22;40072;50.958;3.592;2022-12-29T14:09:02;8.90;99.90
54168;DHT22;40072;50.958;3.592;2022-12-29T14:11:37;8.90;99.90
54168;DHT22;40072;50.958;3.592;2022-12-29T14:14:28;8.90;99.90
54168;DHT22;40072;50.958;3.592;2022-12-29T14:16:54;8.90;99.90
54168;DHT22;40072;50.958;3.592;2022-12-29T14:19:26;8.90;99.90
54168;DHT22;40072;50.958;3.592;2022-12-29T14:22:04;8.90;99.90
54168;DHT22;40072;50.958;3.592;2022-12-29T14:29:48;9.30;99.90
54168;DHT22;40072;50.958;3.592;2022-12-29T14:34:57;9.50;99.90
54168;DHT22;40072;50.958;3.592;2022-12-29T14:37:33;9.60;99.90
54168;DHT22;40072;50.958;3.592;2022-12-29T14:40:16;9.50;99.90
54168;DHT22;40072;50.958;3.592;2022-12-29T14:42:50;9.40;99.90
54168;DHT22;40072;50.958;3.592;2022-12-29T14:47:50;9.20;99.90
54168;DHT22;40072;50.958;3.592;2022-12-29T14:50:38;9.10;99.90
54168;DHT22;40072;50.958;3.592;2022-12-29T14:53:06;9.00;99.90
54168;DHT22;40072;50.958;3.592;2022-12-29T14:55:58;9.10;99.90
54168;DHT22;40072;50.958;3.592;2022-12-29T14:58:29;9.10;99.90
54168;DHT22;40072;50.958;3.592;2022-12-29T15:00:57;9.10;99.90
54168;DHT22;40072;50.958;3.592;2022-12-29T15:03:43;9.10;99.90
54168;DHT22;40072;50.958;3.592;2022-12-29T15:06:13;9.00;99.90
54168;DHT22;40072;50.958;3.592;2022-12-29T15:09:10;8.90;99.90
54168;DHT22;40072;50.958;3.592;2022-12-29T15:14:32;8.60;99.90
54168;DHT22;40072;50.958;3.592;2022-12-29T15:16:58;8.50;99.90
54168;DHT22;40072;50.958;3.592;2022-12-29T15:19:26;8.50;99.90
54168;DHT22;40072;50.958;3.592;2022-12-29T15:21:56;8.50;99.90
54168;DHT22;40072;50.958;3.592;2022-12-29T15:24:22;8.50;99.90
54168;DHT22;40072;50.958;3.592;2022-12-29T15:26:53;8.40;99.90
54168;DHT22;40072;50.958;3.592;2022-12-29T15:29:41;8.40;99.90
54168;DHT22;40072;50.958;3.592;2022-12-29T15:34:43;8.40;99.90
54168;DHT22;40072;50.958;3.592;2022-12-29T15:37:09;8.30;99.90
54168;DHT22;40072;50.958;3.592;2022-12-29T15:39:35;8.40;99.90
54168;DHT22;40072;50.958;3.592;2022-12-29T15:45:11;8.30;99.90
54168;DHT22;40072;50.958;3.592;2022-12-29T15:47:38;8.30;99.90
54168;DHT22;40072;50.958;3.592;2022-12-29T15:50:27;8.20;99.90
54168;DHT22;40072;50.958;3.592;2022-12-29T15:52:54;8.20;99.90
54168;DHT22;40072;50.958;3.592;2022-12-29T15:55:28;8.20;99.90
54168;DHT22;40072;50.958;3.592;2022-12-29T15:57:57;8.20;99.90
54168;DHT22;40072;50.958;3.592;2022-12-29T16:00:33;8.20;99.90
54168;DHT22;40072;50.958;3.592;2022-12-29T16:03:01;8.20;99.90
54168;DHT22;40072;50.958;3.592;2022-12-29T16:05:36;8.10;99.90
54168;DHT22;40072;50.958;3.592;2022-12-29T16:08:03;8.10;99.90
54168;DHT22;40072;50.958;3.592;2022-12-29T16:10:36;8.10;99.90
54168;DHT22;40072;50.958;3.592;2022-12-29T16:13:30;8.00;99.90
54168;DHT22;40072;50.958;3.592;2022-12-29T16:16:43;7.90;99.90
54168;DHT22;40072;50.958;3.592;2022-12-29T16:18:50;7.90;99.90
54168;DHT22;40072;50.958;3.592;2022-12-29T16:21:21;7.90;99.90
54168;DHT22;40072;50.958;3.592;2022-12-29T16:23:50;7.90;99.90
54168;DHT22;40072;50.958;3.592;2022-12-29T16:26:20;7.90;99.90
54168;DHT22;40072;50.958;3.592;2022-12-29T16:28:49;7.90;99.90
54168;DHT22;40072;50.958;3.592;2022-12-29T16:31:36;7.80;99.90
54168;DHT22;40072;50.958;3.592;2022-12-29T16:34:24;7.90;99.90
54168;DHT22;40072;50.958;3.592;2022-12-29T16:36:58;7.90;99.90
54168;DHT22;40072;50.958;3.592;2022-12-29T16:39:33;8.00;99.90
54168;DHT22;40072;50.958;3.592;2022-12-29T16:41:59;7.90;99.90
54168;DHT22;40072;50.958;3.592;2022-12-29T16:44:28;7.90;99.90
54168;DHT22;40072;50.958;3.592;2022-12-29T16:46:58;7.90;99.90
54168;DHT22;40072;50.958;3.592;2022-12-29T16:49:24;8.00;99.90
54168;DHT22;40072;50.958;3.592;2022-12-29T16:51:51;8.00;99.90
54168;DHT22;40072;50.958;3.592;2022-12-29T16:54:46;8.10;99.90
54168;DHT22;40072;50.958;3.592;2022-12-29T16:57:09;8.10;99.90
54168;DHT22;40072;50.958;3.592;2022-12-29T16:59:40;8.00;99.90
54168;DHT22;40072;50.958;3.592;2022-12-29T17:02:19;8.00;99.90
54168;DHT22;40072;50.958;3.592;2022-12-29T17:04:45;8.10;99.90
54168;DHT22;40072;50.958;3.592;2022-12-29T17:07:22;8.00;99.90
54168;DHT22;40072;50.958;3.592;2022-12-29T17:09:48;8.10;99.90
54168;DHT22;40072;50.958;3.592;2022-12-29T17:12:21;8.10;99.90
54168;DHT22;40072;50.958;3.592;2022-12-29T17:14:48;8.10;99.90
54168;DHT22;40072;50.958;3.592;2022-12-29T17:17:39;8.20;99.90
54168;DHT22;40072;50.958;3.592;2022-12-29T17:20:27;8.10;99.90
54168;DHT22;40072;50.958;3.592;2022-12-29T17:22:54;8.20;99.90
54168;DHT22;40072;50.958;3.592;2022-12-29T17:30:40;8.10;99.90
54168;DHT22;40072;50.958;3.592;2022-12-29T17:33:09;8.10;99.90
54168;DHT22;40072;50.958;3.592;2022-12-29T17:35:37;8.10;99.90
54168;DHT22;40072;50.958;3.592;2022-12-29T17:40:42;8.10;99.90
54168;DHT22;40072;50.958;3.592;2022-12-29T17:43:13;8.10;99.90
54168;DHT22;40072;50.958;3.592;2022-12-29T17:45:41;8.10;99.90
54168;DHT22;40072;50.958;3.592;2022-12-29T17:48:15;8.10;99.90
54168;DHT22;40072;50.958;3.592;2022-12-29T17:50:41;8.20;99.90
54168;DHT22;40072;50.958;3.592;2022-12-29T17:53:12;8.20;99.90
54168;DHT22;40072;50.958;3.592;2022-12-29T17:55:39;8.30;99.90
54168;DHT22;40072;50.958;3.592;2022-12-29T17:58:25;8.20;99.90
54168;DHT22;40072;50.958;3.592;2022-12-29T18:00:53;8.20;99.90
54168;DHT22;40072;50.958;3.592;2022-12-29T18:03:39;8.20;99.90
54168;DHT22;40072;50.958;3.592;2022-12-29T18:06:06;8.30;99.90
54168;DHT22;40072;50.958;3.592;2022-12-29T18:08:36;8.30;99.90
54168;DHT22;40072;50.958;3.592;2022-12-29T18:11:04;8.20;99.90
54168;DHT22;40072;50.958;3.592;2022-12-29T18:13:31;8.20;99.90
54168;DHT22;40072;50.958;3.592;2022-12-29T18:15:57;8.20;99.90
54168;DHT22;40072;50.958;3.592;2022-12-29T18:18:25;8.20;99.90
54168;DHT22;40072;50.958;3.592;2022-12-29T18:20:53;8.20;99.90
54168;DHT22;40072;50.958;3.592;2022-12-29T18:23:26;8.20;99.90
54168;DHT22;40072;50.958;3.592;2022-12-29T18:26:04;8.20;99.90
54168;DHT22;40072;50.958;3.592;2022-12-29T18:28:31;8.30;99.90